createdAt,value
2018-09-04T00:01:18.297Z,22.00
2018-09-04T00:03:46.481Z,23.33
2018-09-04T00:06:14.729Z,20.10
2018-09-04T00:08:42.942Z,24.20
2018-09-04T00:11:11.217Z,26.67
2018-09-04T00:13:39.396Z,25.50
2018-09-04T00:16:09.393Z,25.13
2018-09-04T00:18:38.361Z,26.73
2018-09-04T00:21:06.666Z,24.60
2018-09-04T00:23:34.868Z,25.30
2018-09-04T00:26:03.369Z,25.03
2018-09-04T00:28:31.552Z,27.90
2018-09-04T00:30:59.824Z,26.23
2018-09-04T00:33:28.166Z,27.13
2018-09-04T00:35:56.377Z,28.10
2018-09-04T00:38:24.560Z,27.93
2018-09-04T00:40:52.877Z,28.60
2018-09-04T00:43:21.165Z,26.40
2018-09-04T00:45:49.377Z,27.90
2018-09-04T00:48:17.649Z,26.93
2018-09-04T00:50:45.897Z,27.17
2018-09-04T00:53:14.097Z,26.53
2018-09-04T00:55:42.305Z,26.73
2018-09-04T00:58:10.513Z,23.70
2018-09-04T01:00:38.774Z,25.70
2018-09-04T01:03:07.091Z,28.57
2018-09-04T01:05:35.274Z,27.10
2018-09-04T01:08:03.528Z,26.87
2018-09-04T01:10:31.739Z,27.17
2018-09-04T01:12:59.952Z,24.77
2018-09-04T01:15:28.133Z,25.63
2018-09-04T01:17:56.349Z,23.37
2018-09-04T01:20:24.640Z,24.07
2018-09-04T01:22:52.853Z,26.50
2018-09-04T01:25:21.041Z,25.57
2018-09-04T01:27:49.245Z,25.93
2018-09-04T01:30:17.533Z,25.30
2018-09-04T01:32:45.756Z,25.53
2018-09-04T01:35:14.025Z,24.03
2018-09-04T01:37:42.239Z,26.73
2018-09-04T01:40:10.433Z,24.67
2018-09-04T01:42:38.662Z,25.03
2018-09-04T01:45:06.853Z,25.60
2018-09-04T01:47:35.114Z,26.70
2018-09-04T01:50:03.304Z,26.53
2018-09-04T01:52:31.505Z,27.00
2018-09-04T01:54:59.661Z,26.23
2018-09-04T01:57:27.873Z,25.53
2018-09-04T01:59:56.053Z,25.97
2018-09-04T02:02:24.300Z,29.27
2018-09-04T02:04:52.491Z,27.63
2018-09-04T02:07:20.797Z,27.20
2018-09-04T02:09:49.026Z,28.40
2018-09-04T02:12:17.261Z,26.57
2018-09-04T02:14:45.497Z,27.57
2018-09-04T02:17:13.680Z,26.20
2018-09-04T02:19:41.884Z,25.00
2018-09-04T02:22:10.077Z,25.57
2018-09-04T02:24:38.274Z,27.37
2018-09-04T02:27:06.460Z,28.47
2018-09-04T02:29:34.662Z,28.13
2018-09-04T02:32:02.827Z,28.90
2018-09-04T02:34:31.016Z,27.00
2018-09-04T02:36:59.193Z,27.73
2018-09-04T02:39:27.459Z,27.77
2018-09-04T02:41:55.612Z,25.57
2018-09-04T02:44:23.917Z,25.90
2018-09-04T02:46:52.085Z,25.80
2018-09-04T02:49:20.277Z,26.27
2018-09-04T02:51:48.508Z,24.10
2018-09-04T02:54:16.805Z,26.07
2018-09-04T02:56:44.969Z,25.87
2018-09-04T02:59:13.172Z,21.97
2018-09-04T03:01:41.396Z,19.77
2018-09-04T03:04:09.678Z,18.43
2018-09-04T03:06:37.845Z,19.07
2018-09-04T03:09:06.884Z,18.33
2018-09-04T03:11:35.202Z,21.10
2018-09-04T03:14:03.507Z,19.93
2018-09-04T03:16:31.718Z,20.83
2018-09-04T03:18:59.912Z,20.00
2018-09-04T03:21:28.092Z,19.60
2018-09-04T03:23:56.290Z,20.80
2018-09-04T03:26:24.465Z,18.37
2018-09-04T03:28:52.701Z,20.50
2018-09-04T03:31:20.885Z,18.97
2018-09-04T03:33:49.168Z,16.93
2018-09-04T03:36:17.356Z,18.60
2018-09-04T03:38:45.524Z,19.43
2018-09-04T03:41:13.738Z,20.03
2018-09-04T03:43:41.905Z,17.73
2018-09-04T03:46:10.104Z,18.37
2018-09-04T03:48:38.348Z,19.80
2018-09-04T03:51:06.590Z,18.97
2018-09-04T03:53:34.760Z,18.17
2018-09-04T03:56:02.985Z,19.63
2018-09-04T03:58:31.169Z,18.00
2018-09-04T04:00:59.373Z,19.77
2018-09-04T04:03:27.527Z,19.93
2018-09-04T04:05:55.740Z,19.63
2018-09-04T04:08:23.902Z,20.40
2018-09-04T04:10:52.146Z,20.03
2018-09-04T04:13:20.313Z,21.37
2018-09-04T04:15:48.568Z,23.27
2018-09-04T04:18:16.745Z,21.70
2018-09-04T04:20:52.549Z,23.30
2018-09-04T04:23:20.724Z,25.10
2018-09-04T04:25:49.036Z,23.77
2018-09-04T04:28:17.201Z,25.87
2018-09-04T04:30:45.417Z,25.30
2018-09-04T04:33:13.666Z,27.50
2018-09-04T04:35:41.948Z,27.67
2018-09-04T04:38:10.218Z,28.63
2018-09-04T04:40:38.609Z,28.30
2018-09-04T04:43:06.793Z,27.87
2018-09-04T04:45:34.989Z,26.50
2018-09-04T04:48:03.256Z,25.77
2018-09-04T04:50:31.455Z,26.53
2018-09-04T04:52:59.620Z,27.27
2018-09-04T04:55:27.813Z,26.67
2018-09-04T04:57:55.969Z,25.83
2018-09-04T05:00:24.208Z,25.43
2018-09-04T05:02:52.416Z,26.40
2018-09-04T05:05:20.580Z,25.10
2018-09-04T05:07:48.792Z,28.20
2018-09-04T05:10:16.968Z,26.50
2018-09-04T05:12:45.519Z,25.80
2018-09-04T05:15:13.716Z,27.93
2018-09-04T05:17:41.913Z,25.60
2018-09-04T05:20:11.760Z,24.73
2018-09-04T05:22:40.011Z,24.83
2018-09-04T05:25:08.161Z,25.70
2018-09-04T05:27:36.348Z,25.20
2018-09-04T05:30:04.797Z,25.50
2018-09-04T05:32:40.301Z,24.60
2018-09-04T05:35:10.501Z,24.63
2018-09-04T05:37:38.785Z,27.10
2018-09-04T05:40:07.002Z,27.07
2018-09-04T05:42:39.394Z,23.60
2018-09-04T05:45:07.944Z,23.80
2018-09-04T05:47:37.917Z,25.07
2018-09-04T05:50:07.188Z,21.60
2018-09-04T05:52:35.713Z,20.87
2018-09-04T05:55:04.403Z,19.80
2018-09-04T05:57:32.642Z,21.70
2018-09-04T06:00:01.047Z,21.10
2018-09-04T06:02:30.822Z,21.40
2018-09-04T06:04:59.373Z,22.10
2018-09-04T06:07:27.590Z,20.83
2018-09-04T06:09:55.756Z,21.53
2018-09-04T06:12:23.991Z,21.00
2018-09-04T06:14:52.192Z,21.20
2018-09-04T06:17:20.434Z,18.53
2018-09-04T06:19:48.625Z,22.37
2018-09-04T06:22:16.852Z,19.73
2018-09-04T06:24:45.060Z,18.83
2018-09-04T06:27:13.375Z,18.63
2018-09-04T06:29:41.594Z,18.00
2018-09-04T06:32:09.797Z,17.50
2018-09-04T06:34:38.105Z,17.90
2018-09-04T06:37:06.410Z,17.60
2018-09-04T06:39:34.628Z,17.33
2018-09-04T06:42:02.866Z,17.33
2018-09-04T06:44:31.197Z,17.27
2018-09-04T06:46:59.416Z,15.53
2018-09-04T06:49:27.621Z,17.23
2018-09-04T06:51:55.809Z,16.73
2018-09-04T06:54:24.062Z,15.93
2018-09-04T06:56:52.255Z,18.03
2018-09-04T06:59:20.487Z,15.57
2018-09-04T07:01:48.678Z,15.80
2018-09-04T07:04:16.912Z,16.40
2018-09-04T07:06:45.089Z,14.50
2018-09-04T07:09:14.172Z,15.07
2018-09-04T07:11:43.365Z,15.20
2018-09-04T07:14:11.605Z,14.57
2018-09-04T07:16:40.240Z,15.00
2018-09-04T07:19:08.764Z,15.30
2018-09-04T07:21:36.965Z,13.03
2018-09-04T07:24:05.218Z,14.13
2018-09-04T07:26:33.507Z,13.90
2018-09-04T07:29:01.709Z,14.40
2018-09-04T07:31:29.889Z,15.67
2018-09-04T07:33:58.113Z,16.23
2018-09-04T07:36:26.346Z,15.20
2018-09-04T07:38:54.681Z,15.63
2018-09-04T07:41:22.941Z,14.77
2018-09-04T07:43:51.169Z,16.30
2018-09-04T07:46:19.397Z,16.43
2018-09-04T07:48:47.601Z,15.80
2018-09-04T07:51:15.815Z,17.53
2018-09-04T07:53:44.044Z,16.20
2018-09-04T07:56:12.372Z,15.90
2018-09-04T07:58:40.585Z,16.80
2018-09-04T08:01:08.825Z,18.50
2018-09-04T08:03:37.001Z,18.67
2018-09-04T08:06:05.489Z,18.10
2018-09-04T08:08:33.682Z,18.27
2018-09-04T08:11:01.998Z,19.17
2018-09-04T08:13:30.167Z,19.00
2018-09-04T08:15:58.422Z,19.20
2018-09-04T08:18:26.591Z,31.23
2018-09-04T08:20:54.878Z,21.87
2018-09-04T08:23:23.004Z,20.00
2018-09-04T08:25:51.224Z,21.33
2018-09-04T08:28:19.389Z,20.30
2018-09-04T08:30:47.601Z,20.13
2018-09-04T08:33:15.919Z,19.17
2018-09-04T08:35:44.017Z,19.27
2018-09-04T08:38:12.242Z,19.03
2018-09-04T08:40:40.449Z,20.50
2018-09-04T08:43:08.656Z,20.70
2018-09-04T08:45:36.877Z,21.53
2018-09-04T08:48:09.501Z,19.97
2018-09-04T08:50:37.938Z,18.33
2018-09-04T08:53:06.085Z,19.07
2018-09-04T08:55:34.269Z,17.90
2018-09-04T08:58:02.428Z,18.77
2018-09-04T09:00:30.622Z,18.73
2018-09-04T09:02:58.932Z,21.20
2018-09-04T09:05:27.217Z,19.47
2018-09-04T09:07:55.372Z,20.40
2018-09-04T09:10:23.618Z,20.27
2018-09-04T09:12:51.879Z,20.13
2018-09-04T09:15:20.199Z,20.43
2018-09-04T09:17:48.462Z,18.70
2018-09-04T09:20:16.678Z,19.67
2018-09-04T09:22:44.942Z,17.37
2018-09-04T09:25:13.211Z,20.10
2018-09-04T09:27:41.557Z,18.90
2018-09-04T09:30:10.141Z,18.90
2018-09-04T09:32:38.430Z,17.67
2018-09-04T09:35:06.992Z,18.27
2018-09-04T09:37:35.219Z,19.27
2018-09-04T09:40:03.501Z,20.03
2018-09-04T09:42:31.889Z,16.80
2018-09-04T09:45:00.138Z,18.10
2018-09-04T09:47:28.488Z,17.60
2018-09-04T09:49:56.713Z,17.03
2018-09-04T09:52:25.048Z,16.37
2018-09-04T09:54:54.372Z,17.60
2018-09-04T09:57:22.725Z,16.03
2018-09-04T09:59:51.323Z,16.53
2018-09-04T10:02:21.685Z,16.00
2018-09-04T10:04:49.954Z,16.63
2018-09-04T10:07:18.205Z,16.00
2018-09-04T10:09:46.465Z,13.80
2018-09-04T10:12:14.865Z,13.13
2018-09-04T10:14:43.160Z,13.70
2018-09-04T10:17:11.433Z,12.73
2018-09-04T10:19:39.600Z,11.67
2018-09-04T10:22:07.829Z,9.00
2018-09-04T10:24:36.045Z,8.87
2018-09-04T10:27:04.330Z,8.63
2018-09-04T10:29:32.502Z,7.60
2018-09-04T10:32:00.685Z,9.50
2018-09-04T10:34:29.300Z,7.47
2018-09-04T10:36:57.477Z,6.77
2018-09-04T10:39:31.328Z,6.10
2018-09-04T10:41:59.513Z,8.27
2018-09-04T10:44:31.941Z,6.63
2018-09-04T10:47:00.558Z,6.57
2018-09-04T10:49:28.766Z,6.93
2018-09-04T10:51:56.961Z,10.30
2018-09-04T10:54:25.304Z,8.80
2018-09-04T10:56:53.722Z,7.63
2018-09-04T10:59:22.004Z,7.47
2018-09-04T11:01:50.229Z,8.23
2018-09-04T11:04:18.511Z,9.43
2018-09-04T11:06:46.680Z,10.10
2018-09-04T11:09:15.014Z,10.13
2018-09-04T11:11:44.189Z,10.80
2018-09-04T11:14:12.453Z,12.23
2018-09-04T11:16:40.625Z,12.33
2018-09-04T11:19:08.839Z,13.30
2018-09-04T11:21:36.997Z,14.60
2018-09-04T11:24:05.400Z,15.17
2018-09-04T11:26:33.580Z,14.37
2018-09-04T11:29:03.826Z,13.77
2018-09-04T11:31:32.013Z,14.80
2018-09-04T11:34:00.229Z,15.47
2018-09-04T11:36:28.887Z,15.17
2018-09-04T11:38:57.490Z,15.80
2018-09-04T11:41:25.663Z,16.50
2018-09-04T11:43:53.870Z,17.00
2018-09-04T11:46:22.045Z,17.53
2018-09-04T11:48:50.250Z,19.40
2018-09-04T11:51:18.476Z,16.97
2018-09-04T11:53:46.709Z,19.53
2018-09-04T11:56:19.000Z,18.30
2018-09-04T11:58:47.181Z,18.43
2018-09-04T12:01:16.868Z,19.17
2018-09-04T12:03:45.154Z,19.30
2018-09-04T12:06:13.361Z,20.70
2018-09-04T12:08:41.585Z,20.23
2018-09-04T12:11:09.801Z,21.00
2018-09-04T12:13:37.990Z,23.37
2018-09-04T12:16:06.285Z,20.67
2018-09-04T12:18:34.515Z,21.70
2018-09-04T12:21:06.400Z,25.13
2018-09-04T12:23:34.467Z,22.33
2018-09-04T12:26:04.005Z,24.50
2018-09-04T12:28:32.340Z,25.50
2018-09-04T12:31:00.925Z,21.97
2018-09-04T12:33:29.150Z,23.23
2018-09-04T12:35:57.378Z,25.13
2018-09-04T12:38:30.277Z,25.63
2018-09-04T12:40:58.630Z,24.30
2018-09-04T12:43:26.909Z,25.57
2018-09-04T12:45:56.087Z,25.30
2018-09-04T12:48:26.335Z,24.50
2018-09-04T12:50:55.725Z,24.33
2018-09-04T12:53:24.520Z,24.70
2018-09-04T12:55:52.847Z,24.30
2018-09-04T12:58:21.014Z,24.47
2018-09-04T13:00:50.316Z,22.23
2018-09-04T13:03:19.944Z,23.90
2018-09-04T13:05:48.203Z,25.57
2018-09-04T13:08:17.605Z,25.57
2018-09-04T13:10:46.104Z,25.07
2018-09-04T13:13:14.288Z,25.30
2018-09-04T13:15:44.656Z,25.90
2018-09-04T13:18:13.030Z,27.10
2018-09-04T13:20:41.228Z,24.73
2018-09-04T13:23:09.426Z,24.30
2018-09-04T13:25:44.176Z,23.97
2018-09-04T13:28:12.485Z,23.50
2018-09-04T13:30:40.722Z,24.13
2018-09-04T13:33:09.050Z,23.63
2018-09-04T13:35:37.673Z,23.63
2018-09-04T13:38:06.201Z,24.93
2018-09-04T13:40:34.379Z,24.50
2018-09-04T13:43:02.604Z,22.20
2018-09-04T13:45:30.842Z,22.70
2018-09-04T13:48:00.482Z,24.43
2018-09-04T13:50:28.765Z,22.70
2018-09-04T13:52:57.003Z,24.40
2018-09-04T13:55:25.171Z,22.33
2018-09-04T13:57:53.368Z,24.30
2018-09-04T14:00:22.506Z,25.53
2018-09-04T14:02:50.761Z,25.10
2018-09-04T14:05:18.965Z,26.00
2018-09-04T14:07:47.180Z,26.60
2018-09-04T14:10:15.366Z,23.07
2018-09-04T14:12:43.591Z,23.70
2018-09-04T14:15:11.994Z,23.77
2018-09-04T14:17:41.086Z,23.57
2018-09-04T14:20:09.285Z,23.47
2018-09-04T14:22:37.556Z,26.23
2018-09-04T14:25:05.779Z,24.87
2018-09-04T14:27:33.981Z,25.10
2018-09-04T14:30:16.418Z,22.73
2018-09-04T14:32:30.440Z,24.00
2018-09-04T14:34:58.615Z,22.63
2018-09-04T14:37:26.817Z,23.07
2018-09-04T14:39:55.584Z,22.50
2018-09-04T14:42:23.258Z,22.10
2018-09-04T14:44:51.495Z,23.23
2018-09-04T14:47:19.665Z,22.83
2018-09-04T14:49:47.867Z,24.10
2018-09-04T14:52:16.069Z,24.00
2018-09-04T14:54:44.331Z,22.47
2018-09-04T14:57:12.492Z,22.77
2018-09-04T14:59:40.704Z,20.60
2018-09-04T15:02:08.898Z,21.13
2018-09-04T15:04:37.105Z,21.60
2018-09-04T15:07:05.359Z,19.33
2018-09-04T15:09:33.588Z,20.17
2018-09-04T15:12:01.837Z,18.83
2018-09-04T15:14:30.097Z,20.43
2018-09-04T15:16:59.333Z,20.20
2018-09-04T15:19:27.570Z,24.70
2018-09-04T15:21:55.749Z,20.07
2018-09-04T15:24:23.975Z,20.33
2018-09-04T15:26:52.149Z,23.00
2018-09-04T15:29:20.369Z,21.53
2018-09-04T15:31:48.601Z,20.90
2018-09-04T15:34:17.043Z,22.43
2018-09-04T15:36:45.232Z,19.53
2018-09-04T15:39:13.447Z,19.40
2018-09-04T15:41:41.676Z,21.50
2018-09-04T15:44:09.870Z,22.00
2018-09-04T15:46:38.053Z,19.83
2018-09-04T15:50:09.695Z,18.80
2018-09-04T15:52:37.901Z,18.97
2018-09-04T15:55:06.160Z,22.10
2018-09-04T15:57:34.344Z,18.70
2018-09-04T16:00:02.642Z,20.87
2018-09-04T16:02:30.801Z,20.00
2018-09-04T16:04:58.996Z,18.00
2018-09-04T16:07:27.200Z,19.80
2018-09-04T16:09:55.548Z,20.37
2018-09-04T16:12:23.637Z,19.47
2018-09-04T16:14:51.876Z,17.47
2018-09-04T16:17:20.062Z,19.40
2018-09-04T16:19:48.280Z,20.87
2018-09-04T16:22:16.453Z,20.97
2018-09-04T16:24:44.687Z,21.63
2018-09-04T16:27:12.844Z,18.13
2018-09-04T16:29:41.040Z,19.97
2018-09-04T16:32:09.238Z,22.77
2018-09-04T16:34:37.473Z,22.37
2018-09-04T16:37:05.708Z,21.70
2018-09-04T16:39:33.897Z,19.10
2018-09-04T16:42:02.119Z,20.80
2018-09-04T16:44:30.294Z,20.93
2018-09-04T16:46:58.514Z,22.10
2018-09-04T16:49:27.533Z,18.73
2018-09-04T16:51:57.709Z,18.70
2018-09-04T16:54:26.469Z,19.43
2018-09-04T16:56:54.679Z,17.70
2018-09-04T16:59:22.958Z,19.53
2018-09-04T17:01:51.181Z,21.40
2018-09-04T17:04:19.353Z,19.50
2018-09-04T17:06:47.762Z,18.90
2018-09-04T17:09:16.018Z,22.33
2018-09-04T17:11:44.338Z,20.57
2018-09-04T17:14:12.514Z,15.70
2018-09-04T17:16:40.757Z,19.87
2018-09-04T17:19:08.957Z,21.00
2018-09-04T17:21:37.149Z,21.60
2018-09-04T17:24:05.354Z,21.10
2018-09-04T17:26:33.536Z,19.07
2018-09-04T17:29:01.730Z,18.50
2018-09-04T17:31:29.933Z,16.13
2018-09-04T17:33:58.142Z,18.50
2018-09-04T17:36:26.341Z,19.37
2018-09-04T17:38:54.605Z,16.50
2018-09-04T17:41:22.876Z,18.77
2018-09-04T17:43:51.043Z,18.57
2018-09-04T17:46:19.258Z,19.57
2018-09-04T17:48:47.425Z,18.30
2018-09-04T17:51:15.659Z,18.40
2018-09-04T17:53:43.967Z,19.13
2018-09-04T17:56:13.085Z,19.87
2018-09-04T17:58:41.379Z,20.70
2018-09-04T18:01:09.610Z,18.97
2018-09-04T18:03:37.845Z,22.97
2018-09-04T18:06:06.551Z,25.13
2018-09-04T18:08:35.356Z,25.20
2018-09-04T18:11:04.139Z,19.67
2018-09-04T18:13:34.807Z,24.40
2018-09-04T18:16:15.189Z,24.37
2018-09-04T18:18:43.802Z,25.10
2018-09-04T18:21:12.376Z,32.30
2018-09-04T18:23:41.050Z,31.53
2018-09-04T18:26:09.725Z,26.70
2018-09-04T18:28:38.478Z,21.20
2018-09-04T18:31:07.247Z,18.30
2018-09-04T18:33:35.825Z,19.80
2018-09-04T18:36:04.100Z,23.83
2018-09-04T18:38:32.433Z,18.00
2018-09-04T18:41:00.593Z,16.40
2018-09-04T18:43:28.813Z,18.77
2018-09-04T18:45:57.260Z,17.63
2018-09-04T18:48:25.941Z,17.10
2018-09-04T18:50:54.137Z,17.67
2018-09-04T18:53:22.447Z,16.77
2018-09-04T18:55:50.721Z,17.90
2018-09-04T18:58:18.949Z,19.70
2018-09-04T19:00:47.283Z,18.03
2018-09-04T19:03:15.508Z,18.50
2018-09-04T19:05:43.833Z,16.87
2018-09-04T19:08:14.864Z,17.40
2018-09-04T19:10:43.116Z,20.37
2018-09-04T19:13:11.317Z,19.03
2018-09-04T19:15:39.525Z,21.33
2018-09-04T19:18:07.748Z,21.47
2018-09-04T19:20:35.966Z,15.67
2018-09-04T19:23:04.233Z,17.10
2018-09-04T19:25:32.459Z,14.57
2018-09-04T19:28:00.738Z,15.50
2018-09-04T19:30:28.966Z,17.10
2018-09-04T19:32:57.161Z,17.67
2018-09-04T19:35:25.365Z,14.80
2018-09-04T19:37:53.640Z,17.13
2018-09-04T19:40:21.841Z,17.00
2018-09-04T19:42:50.049Z,17.00
2018-09-04T19:45:18.348Z,14.77
2018-09-04T19:47:46.809Z,17.43
2018-09-04T19:50:15.110Z,15.90
2018-09-04T19:52:43.285Z,16.00
2018-09-04T19:55:12.214Z,15.87
2018-09-04T19:57:40.708Z,16.23
2018-09-04T20:00:09.749Z,16.40
2018-09-04T20:02:37.980Z,16.87
2018-09-04T20:05:07.072Z,18.50
2018-09-04T20:07:35.294Z,14.20
2018-09-04T20:10:03.505Z,15.57
2018-09-04T20:12:31.743Z,15.77
2018-09-04T20:14:59.984Z,14.57
2018-09-04T20:17:28.257Z,13.27
2018-09-04T20:19:56.508Z,15.20
2018-09-04T20:22:24.693Z,13.97
2018-09-04T20:24:52.988Z,14.37
2018-09-04T20:27:21.240Z,15.20
2018-09-04T20:29:49.434Z,15.03
2018-09-04T20:32:17.662Z,14.83
2018-09-04T20:34:45.909Z,13.93
2018-09-04T20:37:14.195Z,14.17
2018-09-04T20:39:42.425Z,13.00
2018-09-04T20:42:10.657Z,14.90
2018-09-04T20:44:38.882Z,14.00
2018-09-04T20:47:07.828Z,13.80
2018-09-04T20:49:36.037Z,12.90
2018-09-04T20:52:04.375Z,13.43
2018-09-04T20:54:32.587Z,13.70
2018-09-04T20:57:38.333Z,12.37
2018-09-04T21:00:50.298Z,12.40
2018-09-04T21:03:29.417Z,14.20
2018-09-04T21:06:08.745Z,14.03
2018-09-04T21:08:50.814Z,11.87
2018-09-04T21:11:19.092Z,12.67
2018-09-04T21:13:47.268Z,11.63
2018-09-04T21:16:15.496Z,12.53
2018-09-04T21:18:43.789Z,14.07
2018-09-04T21:21:12.021Z,12.53
2018-09-04T21:23:40.317Z,13.03
2018-09-04T21:26:08.677Z,13.00
2018-09-04T21:28:37.505Z,13.27
2018-09-04T21:31:06.049Z,12.73
2018-09-04T21:33:34.356Z,10.60
2018-09-04T21:36:02.575Z,12.93
2018-09-04T21:38:30.934Z,12.60
2018-09-04T21:40:59.148Z,13.53
2018-09-04T21:43:34.049Z,12.70
2018-09-04T21:46:02.274Z,13.17
2018-09-04T21:48:30.918Z,13.57
2018-09-04T21:50:59.639Z,13.90
2018-09-04T21:53:28.315Z,11.20
2018-09-04T21:55:57.077Z,11.43
2018-09-04T21:58:25.753Z,11.27
2018-09-04T22:00:54.490Z,12.60
2018-09-04T22:03:23.158Z,12.70
2018-09-04T22:05:51.955Z,12.17
2018-09-04T22:08:20.653Z,12.80
2018-09-04T22:10:49.307Z,12.20
2018-09-04T22:13:18.106Z,12.70
2018-09-04T22:15:47.212Z,11.93
2018-09-04T22:18:15.884Z,13.83
2018-09-04T22:20:44.712Z,11.83
2018-09-04T22:23:13.361Z,13.10
2018-09-04T22:25:41.565Z,12.43
2018-09-04T22:28:09.801Z,12.60
2018-09-04T22:30:38.070Z,10.10
2018-09-04T22:33:06.347Z,14.00
2018-09-04T22:35:34.586Z,13.40
2018-09-04T22:38:02.765Z,14.20
2018-09-04T22:40:30.937Z,12.40
2018-09-04T22:42:59.145Z,12.77
2018-09-04T22:45:27.437Z,10.10
2018-09-04T22:47:55.933Z,12.90
2018-09-04T22:50:29.658Z,11.80
2018-09-04T22:52:57.840Z,12.40
2018-09-04T22:55:26.066Z,13.40
2018-09-04T22:57:54.412Z,12.03
2018-09-04T23:00:22.642Z,12.50
2018-09-04T23:02:50.821Z,12.37
2018-09-04T23:05:19.030Z,12.70
2018-09-04T23:07:48.354Z,13.17
2018-09-04T23:10:16.583Z,10.60
2018-09-04T23:12:44.818Z,10.33
2018-09-04T23:15:13.003Z,12.87
2018-09-04T23:17:41.210Z,13.33
2018-09-04T23:20:09.422Z,13.23
2018-09-04T23:22:37.606Z,12.97
2018-09-04T23:25:05.897Z,11.50
2018-09-04T23:27:34.070Z,11.67
2018-09-04T23:30:02.304Z,13.20
2018-09-04T23:32:30.509Z,13.00
2018-09-04T23:34:58.728Z,11.70
2018-09-04T23:37:26.948Z,13.00
2018-09-04T23:39:55.106Z,13.70
2018-09-04T23:42:23.493Z,12.33
2018-09-04T23:44:51.680Z,13.40
2018-09-04T23:47:19.857Z,12.67
2018-09-04T23:49:48.069Z,12.90
2018-09-04T23:52:16.234Z,12.70
2018-09-04T23:54:44.435Z,12.20
2018-09-04T23:57:12.654Z,14.00
2018-09-04T23:59:40.912Z,11.20
